CDT,Max TemperatureF,Mean TemperatureF,Min TemperatureF,Max Dew PointF,MeanDew PointF,Min DewpointF,Max Humidity, Mean Humidity, Min Humidity, Max Sea Level PressureIn, Mean Sea Level PressureIn, Min Sea Level PressureIn, Max VisibilityMiles, Mean VisibilityMiles, Min VisibilityMiles, Max Wind SpeedMPH, Mean Wind SpeedMPH, Max Gust SpeedMPH,PrecipitationIn, CloudCover, Events, WindDirDegrees
2014-3-1,9,4,-2,3,-4,-14,77,67,57,30.46,30.33,30.14,10,7,2,14,9,,0.00,5,Snow,317
2014-3-2,3,-3,-11,-15,-20,-23,64,47,35,30.56,30.51,30.47,10,10,10,17,9,24,0.00,0,,310
2014-3-3,14,-3,-20,4,-11,-26,87,60,39,30.58,30.48,30.28,10,9,2,9,2,,0.00,4,Snow,220
2014-3-4,17,12,8,6,5,3,87,75,59,30.35,30.26,30.17,10,6,1,7,4,,0.04,7,Snow,207
2014-3-5,17,8,-2,5,0,-9,76,62,47,30.56,30.50,30.36,10,10,10,16,7,20,0.00,0,,88
2014-3-6,28,10,-8,12,4,-12,88,68,45,30.52,30.27,30.00,10,10,10,14,4,18,0.00,0,,158
2014-3-7,36,27,18,27,21,11,82,73,62,30.10,29.94,29.82,10,7,4,14,7,,0.00,5,,258
2014-3-8,30,21,9,21,12,4,84,68,51,30.31,30.24,30.13,10,10,10,16,10,,0.00,1,,347
2014-3-9,43,26,8,29,19,5,92,71,51,30.23,29.93,29.70,10,10,8,20,9,28,0.00,0,,215
2014-3-10,55,41,28,33,30,26,100,67,40,29.70,29.64,29.59,10,10,4,16,7,20,0.00,0,,256
2014-3-11,42,39,36,31,28,23,82,67,55,29.88,29.78,29.68,10,10,10,16,5,,0.00,6,,320
2014-3-12,34,23,10,25,12,-1,86,64,35,30.14,30.01,29.88,10,7,1,21,11,30,0.00,4,Snow,13
2014-3-13,41,22,5,32,16,0,84,68,56,30.11,29.91,29.65,10,10,9,18,6,23,0.00,2,,199
2014-3-14,42,38,32,33,29,23,79,69,60,29.86,29.60,29.49,10,10,10,20,13,30,0.00,5,,267
2014-3-15,32,26,19,23,15,6,72,58,47,30.43,30.12,29.83,10,10,10,16,11,25,0.00,4,,333
2014-3-16,21,14,6,7,1,-4,68,56,40,30.54,30.43,30.20,10,10,10,15,9,18,0.00,1,,97
2014-3-17,30,21,12,17,11,5,75,64,47,30.16,29.91,29.76,10,10,5,14,8,21,0.00,6,Snow,145
2014-3-18,42,31,21,30,25,18,92,77,60,29.85,29.81,29.76,10,7,1,17,8,22,0.00,4,Snow,94
2014-3-19,35,32,30,31,28,20,96,85,61,29.96,29.75,29.66,10,5,1,20,11,26,0.08,8,Snow,349
2014-3-20,39,33,26,24,22,18,84,66,51,30.06,30.01,29.96,10,10,10,14,7,18,0.00,4,,293
2014-3-21,44,33,23,33,25,19,88,70,45,30.02,29.87,29.75,10,10,8,18,7,28,0.00,5,Rain,146
2014-3-22,35,26,15,27,15,3,82,65,51,30.46,30.22,29.95,10,10,9,20,16,28,0.00,4,,316
2014-3-23,23,14,6,6,3,0,84,62,42,30.52,30.47,30.42,10,10,10,14,7,17,0.00,1,,314
2014-3-24,30,18,5,25,16,0,92,80,49,30.41,30.15,30.02,10,6,0,15,5,21,0.08,4,Fog-Snow,280
2014-3-25,19,12,3,12,2,-1,84,62,45,30.26,30.18,30.06,10,10,10,21,11,29,0.00,0,,300
2014-3-26,34,16,0,25,12,-3,88,68,43,30.28,30.08,29.84,10,8,2,16,6,23,0.06,5,Snow,159
2014-3-27,39,36,33,36,33,23,100,90,59,29.83,29.58,29.45,10,4,1,13,7,20,0.55,8,Rain-Snow,122
2014-3-28,39,34,28,32,25,21,92,72,53,30.23,29.96,29.56,10,10,7,15,11,28,0.01,4,,347
2014-3-29,46,36,28,27,23,19,86,65,40,30.33,30.26,30.22,10,10,8,9,5,,0.00,4,,101
2014-3-30,59,44,28,35,28,20,78,57,36,30.25,30.07,29.95,10,10,10,17,8,29,0.00,0,,171
2014-3-31,66,52,39,40,37,35,83,60,39,29.97,29.76,29.49,10,10,10,17,10,26,0.00,2,,137